Time;durP1;ratioP1;P1;durP2;ratioP2;P2;SDS_P1;SDS_P2;PMS_P1;PMS_P2;Temp;Humidity;BMP_temperature;BMP_pressure;BME280_temperature;BME280_humidity;BME280_pressure;Samples;Min_cycle;Max_cycle;Signal;HPM_P1;HPM_P2
2022/01/22 00:01:11;;;;;;;;;;;-7.00;93.40;;;;;;5082704;28;20129;-78
2022/01/22 00:03:40;;;;;;;;;;;-7.00;93.60;;;;;;5064643;28;19904;-78
2022/01/22 00:06:06;;;;;;;;;;;-7.00;93.40;;;;;;5082988;28;19947;-79
2022/01/22 00:08:31;;;;;;;;;;;-6.80;93.50;;;;;;5063447;28;19974;-78
2022/01/22 00:10:57;;;;;;;;;;;-6.10;93.80;;;;;;5064491;28;20142;-78
2022/01/22 00:16:07;;;;;;;;;;;-4.40;94.40;;;;;;5082442;28;20325;-78
2022/01/22 00:18:33;;;;;;;;;;;-7.20;93.80;;;;;;5082697;28;19912;-79
2022/01/22 00:20:58;;;;;;;;;;;-7.20;93.80;;;;;;5082517;28;19912;-78
2022/01/22 00:23:26;;;;;;;;;;;-4.90;94.50;;;;;;5082207;28;19904;-78
2022/01/22 00:25:53;;;;;;;;;;;-7.30;94.30;;;;;;5063975;28;20254;-78
2022/01/22 00:28:19;;;;;;;;;;;-3.50;94.90;;;;;;5082302;28;20408;-78
2022/01/22 00:30:44;;;;;;;;;;;-7.10;94.50;;;;;;5081178;28;19908;-78
2022/01/22 00:33:10;;;;;;;;;;;-7.30;94.10;;;;;;5082094;28;20158;-79
2022/01/22 00:35:35;;;;;;;;;;;-6.90;94.00;;;;;;5081382;28;20093;-78
2022/01/22 00:38:01;;;;;;;;;;;-7.10;93.80;;;;;;5081415;28;20108;-78
2022/01/22 00:40:27;;;;;;;;;;;-7.10;93.80;;;;;;5063556;28;19904;-77
2022/01/22 00:42:52;;;;;;;;;;;-7.00;93.20;;;;;;5082036;28;19904;-78
2022/01/22 00:45:18;;;;;;;;;;;-7.10;93.10;;;;;;5063496;28;20394;-78
2022/01/22 00:47:53;;;;;;;;;;;-7.10;93.10;;;;;;5081535;28;20170;-78
2022/01/22 00:50:20;;;;;;;;;;;-5.50;93.70;;;;;;5081335;28;20336;-78
2022/01/22 00:52:46;;;;;;;;;;;-4.20;94.10;;;;;;5081680;28;19915;-79
2022/01/22 00:55:16;;;;;;;;;;;-7.00;93.40;;;;;;5063325;28;19919;-78
2022/01/22 00:57:42;;;;;;;;;;;-7.10;93.20;;;;;;5081602;28;20180;-78
2022/01/22 01:00:09;;;;;;;;;;;-7.10;93.30;;;;;;5081129;28;20267;-78
2022/01/22 01:02:36;;;;;;;;;;;-7.10;93.30;;;;;;5063317;28;19904;-78
2022/01/22 01:05:03;;;;;;;;;;;-7.10;93.20;;;;;;5081057;28;19904;-79
2022/01/22 01:07:30;;;;;;;;;;;-7.10;93.30;;;;;;5083475;28;19904;-78
2022/01/22 01:09:56;;;;;;;;;;;-7.10;93.40;;;;;;5088945;28;19911;-78
2022/01/22 01:12:22;;;;;;;;;;;-5.00;94.30;;;;;;5083119;28;20295;-78
2022/01/22 01:15:05;;;;;;;;;;;-6.90;93.40;;;;;;5064222;28;19974;-79
2022/01/22 01:34:11;;;;;;;;;;;-6.50;93.30;;;;;;5081051;28;19954;-78
2022/01/22 01:36:36;;;;;;;;;;;-6.50;93.10;;;;;;5081236;28;20119;-78
2022/01/22 01:39:04;;;;;;;;;;;-6.50;93.00;;;;;;5080892;28;19904;-78
2022/01/22 01:41:40;;;;;;;;;;;-6.50;93.00;;;;;;5080893;28;20089;-78
2022/01/22 01:44:05;;;;;;;;;;;-6.40;92.80;;;;;;5064376;28;19955;-78
2022/01/22 01:46:33;;;;;;;;;;;-6.40;92.60;;;;;;5095315;28;19926;-78
2022/01/22 01:48:59;;;;;;;;;;;-4.30;93.00;;;;;;5095614;28;20245;-78
2022/01/22 01:51:27;;;;;;;;;;;-6.30;92.50;;;;;;5096839;28;20156;-79
2022/01/22 01:54:07;;;;;;;;;;;-4.60;93.20;;;;;;5067801;28;20452;-78
2022/01/22 01:59:17;;;;;;;;;;;-6.40;93.00;;;;;;5082861;28;20561;-78
2022/01/22 02:01:42;;;;;;;;;;;-4.70;92.80;;;;;;5082253;28;19947;-78
2022/01/22 02:04:11;;;;;;;;;;;-5.60;92.40;;;;;;5081498;28;19904;-78
2022/01/22 02:06:37;;;;;;;;;;;-6.40;92.50;;;;;;5061963;28;19908;-78
2022/01/22 02:09:06;;;;;;;;;;;-6.40;92.40;;;;;;5068068;28;19904;-78
2022/01/22 02:11:35;;;;;;;;;;;-6.40;92.10;;;;;;5089738;28;20169;-79
2022/01/22 02:24:59;;;;;;;;;;;-8.30;92.20;;;;;;5081022;28;20307;-79
2022/01/22 02:27:24;;;;;;;;;;;-6.30;92.70;;;;;;5062345;28;19904;-78
2022/01/22 02:29:50;;;;;;;;;;;-6.30;92.40;;;;;;5080429;28;19904;-79
2022/01/22 02:33:14;;;;;;;;;;;-6.20;92.50;;;;;;5080100;28;19908;-79
2022/01/22 02:35:16;;;;;;;;;;;-6.20;92.50;;;;;;5068643;28;19916;-79
2022/01/22 02:37:52;;;;;;;;;;;-5.70;92.80;;;;;;5079803;28;19904;-78
2022/01/22 02:40:25;;;;;;;;;;;-6.10;92.50;;;;;;5063672;28;19910;-79
2022/01/22 02:42:51;;;;;;;;;;;-6.10;92.60;;;;;;5079807;28;20118;-79
2022/01/22 02:45:20;;;;;;;;;;;-5.90;92.90;;;;;;5079406;28;20298;-78
2022/01/22 02:47:46;;;;;;;;;;;-5.90;92.80;;;;;;5079284;28;19919;-78
2022/01/22 02:50:12;;;;;;;;;;;-5.80;92.90;;;;;;5079273;28;19908;-78
2022/01/22 02:52:38;;;;;;;;;;;-5.80;92.50;;;;;;5080232;28;20127;-79
2022/01/22 02:55:06;;;;;;;;;;;-5.70;92.30;;;;;;5079363;28;19954;-78
2022/01/22 02:57:35;;;;;;;;;;;-5.60;92.20;;;;;;5061268;28;20359;-78
2022/01/22 03:00:02;;;;;;;;;;;-5.60;92.20;;;;;;5079605;28;19904;-79
2022/01/22 03:02:28;;;;;;;;;;;-5.60;92.10;;;;;;5079473;28;19904;-79
2022/01/22 03:04:54;;;;;;;;;;;-5.60;92.30;;;;;;5061321;28;20295;-78
2022/01/22 03:07:19;;;;;;;;;;;-3.10;92.90;;;;;;5079452;28;20060;-79
2022/01/22 03:09:47;;;;;;;;;;;-5.80;92.00;;;;;;5079803;28;20220;-79
2022/01/22 03:23:10;;;;;;;;;;;-6.00;92.40;;;;;;5019121;28;19905;-79
2022/01/22 03:28:25;;;;;;;;;;;-4.60;93.00;;;;;;5016499;28;20447;-78
2022/01/22 03:30:50;;;;;;;;;;;-6.20;92.80;;;;;;5016020;28;20355;-78
2022/01/22 03:33:19;;;;;;;;;;;-6.20;92.80;;;;;;5015733;28;19909;-79
2022/01/22 03:35:50;;;;;;;;;;;-6.30;93.30;;;;;;5015601;28;19925;-78
2022/01/22 03:38:16;;;;;;;;;;;-6.30;93.00;;;;;;5016024;28;19916;-79
2022/01/22 03:40:48;;;;;;;;;;;-6.30;93.00;;;;;;5015473;28;19909;-78
2022/01/22 03:43:14;;;;;;;;;;;-6.30;93.50;;;;;;4998733;28;19905;-79
2022/01/22 03:45:40;;;;;;;;;;;-6.30;93.10;;;;;;5015562;28;19916;-78
2022/01/22 03:48:05;;;;;;;;;;;-6.40;93.30;;;;;;5015331;28;20161;-79
2022/01/22 03:50:31;;;;;;;;;;;-6.30;93.20;;;;;;4999541;28;20107;-79
2022/01/22 03:52:57;;;;;;;;;;;-6.60;93.30;;;;;;5078806;28;20511;-79
2022/01/22 03:55:45;;;;;;;;;;;-6.40;93.60;;;;;;5059754;28;20018;-78
2022/01/22 03:58:08;;;;;;;;;;;-6.60;93.60;;;;;;5077895;28;19927;-79
2022/01/22 04:00:34;;;;;;;;;;;-6.70;93.70;;;;;;5060294;28;20382;-79
2022/01/22 04:06:07;;;;;;;;;;;-5.40;94.40;;;;;;5078713;28;20416;-78
2022/01/22 04:08:32;;;;;;;;;;;-6.80;94.20;;;;;;5078122;28;19984;-78
2022/01/22 04:10:57;;;;;;;;;;;-6.80;94.40;;;;;;5060030;28;19904;-78
2022/01/22 04:13:30;;;;;;;;;;;-6.80;94.10;;;;;;5059614;28;19916;-78
2022/01/22 04:15:57;;;;;;;;;;;-6.80;94.30;;;;;;5078404;28;19912;-79
2022/01/22 04:29:06;;;;;;;;;;;-6.80;95.50;;;;;;5090024;28;19912;-79
2022/01/22 04:31:32;;;;;;;;;;;-7.10;95.50;;;;;;5096544;28;19908;-79
2022/01/22 04:33:57;;;;;;;;;;;-6.30;96.00;;;;;;5097471;28;19904;-79
2022/01/22 04:36:23;;;;;;;;;;;-7.00;95.90;;;;;;5097470;28;20378;-79
2022/01/22 04:38:49;;;;;;;;;;;-5.60;96.00;;;;;;5081763;28;19908;-79
2022/01/22 04:41:14;;;;;;;;;;;-6.50;95.70;;;;;;5082429;28;20014;-78
2022/01/22 04:43:42;;;;;;;;;;;-7.00;95.50;;;;;;5082692;28;20582;-78
2022/01/22 04:56:33;;;;;;;;;;;-7.10;95.40;;;;;;5081524;28;19924;-79
2022/01/22 04:58:59;;;;;;;;;;;-3.90;96.30;;;;;;5081626;28;20573;-79
2022/01/22 05:01:24;;;;;;;;;;;-5.10;96.30;;;;;;5081847;28;20000;-78
2022/01/22 05:03:50;;;;;;;;;;;-7.10;95.90;;;;;;5081666;28;19910;-78
2022/01/22 05:06:15;;;;;;;;;;;-7.20;95.90;;;;;;5063667;28;19955;-78
2022/01/22 05:08:41;;;;;;;;;;;-7.90;95.50;;;;;;5062591;28;19908;-78
2022/01/22 05:11:08;;;;;;;;;;;-6.50;95.80;;;;;;5062967;28;19907;-78
2022/01/22 05:13:35;;;;;;;;;;;-4.40;96.40;;;;;;5063216;28;19942;-78
2022/01/22 05:16:00;;;;;;;;;;;-4.20;96.40;;;;;;5081185;28;20365;-79
2022/01/22 05:18:26;;;;;;;;;;;-5.50;96.20;;;;;;5081289;28;19987;-77
2022/01/22 05:21:01;;;;;;;;;;;-7.20;95.70;;;;;;5080869;28;19916;-79
2022/01/22 05:23:27;;;;;;;;;;;-7.20;95.70;;;;;;5062848;28;19919;-78
2022/01/22 05:25:57;;;;;;;;;;;-7.20;95.70;;;;;;5081220;28;19908;-79
2022/01/22 05:31:33;;;;;;;;;;;-5.10;95.90;;;;;;5081375;28;19973;-79
2022/01/22 05:39:21;;;;;;;;;;;-7.20;95.30;;;;;;5081788;28;20325;-78
2022/01/22 05:41:47;;;;;;;;;;;-6.30;95.00;;;;;;5081293;28;20041;-78
2022/01/22 05:44:12;;;;;;;;;;;-4.80;95.50;;;;;;5081324;28;20006;-78
2022/01/22 05:46:38;;;;;;;;;;;-5.00;95.60;;;;;;5080814;28;19904;-78
2022/01/22 05:49:04;;;;;;;;;;;-7.30;95.20;;;;;;5080858;28;20282;-78
2022/01/22 05:51:30;;;;;;;;;;;-4.00;95.90;;;;;;5061852;28;19916;-79
2022/01/22 05:59:39;;;;;;;;;;;-7.40;94.90;;;;;;4997583;28;19912;-78
2022/01/22 06:02:22;;;;;;;;;;;-7.50;95.00;;;;;;4997759;28;20108;-78
2022/01/22 06:04:48;;;;;;;;;;;-7.40;95.10;;;;;;4981125;28;19905;-79
2022/01/22 06:07:14;;;;;;;;;;;-6.20;95.60;;;;;;4997474;28;19905;-78
2022/01/22 06:13:13;;;;;;;;;;;-6.60;95.50;;;;;;4901134;28;19955;-78
2022/01/22 06:15:31;;;;;;;;;;;-6.60;95.30;;;;;;4900894;29;19937;-78
2022/01/22 06:17:56;;;;;;;;;;;-7.50;95.20;;;;;;4900738;29;19941;-78
2022/01/22 06:20:22;;;;;;;;;;;-7.60;95.00;;;;;;4900889;29;19911;-78
2022/01/22 06:22:47;;;;;;;;;;;-7.50;95.20;;;;;;4900996;28;20297;-78
2022/01/22 06:25:13;;;;;;;;;;;-7.70;95.00;;;;;;4900748;29;20371;-78
2022/01/22 06:27:39;;;;;;;;;;;-7.60;95.10;;;;;;4900738;29;19966;-78
2022/01/22 06:30:05;;;;;;;;;;;-7.60;95.20;;;;;;4900970;29;20113;-78
2022/01/22 06:32:31;;;;;;;;;;;-7.60;95.20;;;;;;4900293;29;19907;-79
2022/01/22 06:34:56;;;;;;;;;;;-5.10;96.00;;;;;;4972979;28;19910;-78
2022/01/22 06:37:22;;;;;;;;;;;-7.50;95.30;;;;;;4977221;28;19906;-79
2022/01/22 06:42:31;;;;;;;;;;;-4.70;95.80;;;;;;4977383;28;20401;-79
2022/01/22 06:44:58;;;;;;;;;;;-7.50;95.00;;;;;;4977291;28;20031;-79
2022/01/22 06:47:27;;;;;;;;;;;-6.10;95.40;;;;;;4960279;28;20190;-78
2022/01/22 06:49:53;;;;;;;;;;;-7.70;94.90;;;;;;5062847;28;20419;-78
2022/01/22 06:52:19;;;;;;;;;;;-7.80;94.90;;;;;;5079623;28;19965;-79
2022/01/22 06:54:45;;;;;;;;;;;-6.90;94.60;;;;;;5061523;28;19916;-79
2022/01/22 06:57:11;;;;;;;;;;;-5.30;94.80;;;;;;5079783;28;19904;-78
2022/01/22 06:59:37;;;;;;;;;;;-6.00;94.50;;;;;;5079754;28;19908;-78
2022/01/22 07:02:03;;;;;;;;;;;-6.60;94.10;;;;;;5079566;28;19989;-78
2022/01/22 07:04:31;;;;;;;;;;;-6.50;93.60;;;;;;5079044;28;19904;-79
2022/01/22 07:06:57;;;;;;;;;;;-6.50;93.20;;;;;;5079457;28;19969;-78
2022/01/22 07:09:22;;;;;;;;;;;-5.90;93.30;;;;;;5085161;28;20237;-79
2022/01/22 07:11:48;;;;;;;;;;;-6.40;92.90;;;;;;5097420;28;19912;-78
2022/01/22 07:14:14;;;;;;;;;;;-6.00;93.40;;;;;;5080151;28;19904;-79
2022/01/22 07:16:40;;;;;;;;;;;-6.30;93.30;;;;;;5095131;28;19919;-78
2022/01/22 07:19:05;;;;;;;;;;;-6.20;93.30;;;;;;5082473;28;19908;-78
2022/01/22 07:21:32;;;;;;;;;;;-6.20;93.10;;;;;;5081176;28;19962;-78
2022/01/22 07:26:29;;;;;;;;;;;-5.70;92.60;;;;;;5080378;28;20211;-78
2022/01/22 07:28:58;;;;;;;;;;;-4.10;92.90;;;;;;5080176;28;20189;-78
2022/01/22 07:31:26;;;;;;;;;;;-5.80;92.40;;;;;;5079860;28;20172;-78
2022/01/22 07:33:51;;;;;;;;;;;-4.90;92.70;;;;;;5079794;28;19911;-78
2022/01/22 07:36:17;;;;;;;;;;;-3.40;92.60;;;;;;5061646;28;20309;-79
2022/01/22 07:38:43;;;;;;;;;;;-7.30;91.10;;;;;;5079509;28;19904;-79
2022/01/22 07:41:09;;;;;;;;;;;-4.10;91.80;;;;;;5080113;28;20389;-78
2022/01/22 07:43:35;;;;;;;;;;;-5.40;91.50;;;;;;5080740;28;20582;-78
2022/01/22 07:46:01;;;;;;;;;;;-5.20;91.40;;;;;;5086538;28;19904;-79
2022/01/22 07:48:26;;;;;;;;;;;-5.10;91.30;;;;;;5084740;28;20451;-79
2022/01/22 07:50:52;;;;;;;;;;;-4.60;91.10;;;;;;5080699;28;19908;-79
2022/01/22 07:53:18;;;;;;;;;;;-4.90;90.60;;;;;;5061404;28;19904;-78
2022/01/22 07:55:43;;;;;;;;;;;-4.40;90.40;;;;;;5061571;28;19937;-78
2022/01/22 07:58:11;;;;;;;;;;;-4.80;89.80;;;;;;5079524;28;20283;-79
2022/01/22 08:00:37;;;;;;;;;;;-4.70;89.80;;;;;;5079594;28;19964;-78
2022/01/22 08:03:03;;;;;;;;;;;-4.60;90.00;;;;;;5079895;28;19998;-78
2022/01/22 08:05:29;;;;;;;;;;;-4.40;89.80;;;;;;5082052;28;19929;-78
2022/01/22 08:07:55;;;;;;;;;;;-4.40;88.70;;;;;;5072139;28;20246;-79
2022/01/22 08:10:20;;;;;;;;;;;-4.30;89.00;;;;;;5091830;28;19975;-79
2022/01/22 08:12:49;;;;;;;;;;;-4.10;88.20;;;;;;5071926;28;19915;-79
2022/01/22 08:15:16;;;;;;;;;;;-3.00;89.00;;;;;;5081693;28;19912;-78
2022/01/22 08:17:42;;;;;;;;;;;-3.90;88.70;;;;;;5084368;28;19915;-79
2022/01/22 08:20:09;;;;;;;;;;;-1.40;89.00;;;;;;5084164;28;19966;-78
2022/01/22 08:22:34;;;;;;;;;;;-3.50;87.00;;;;;;5083938;28;19907;-78
2022/01/22 08:25:01;;;;;;;;;;;-2.40;85.70;;;;;;5065394;28;19904;-78
2022/01/22 08:29:52;;;;;;;;;;;-3.30;84.20;;;;;;5084087;28;20108;-79
2022/01/22 08:37:46;;;;;;;;;;;-3.00;85.20;;;;;;5082703;28;19978;-79
2022/01/22 08:40:12;;;;;;;;;;;-2.80;84.10;;;;;;5082971;28;20386;-79
2022/01/22 08:42:39;;;;;;;;;;;-2.80;83.50;;;;;;5082307;28;19939;-79
2022/01/22 08:45:05;;;;;;;;;;;-2.10;83.60;;;;;;5063387;28;19904;-78
2022/01/22 08:47:31;;;;;;;;;;;-2.80;83.80;;;;;;5082010;28;19969;-79
2022/01/22 08:49:56;;;;;;;;;;;-2.50;84.30;;;;;;5082780;28;19916;-78
2022/01/22 08:52:30;;;;;;;;;;;-2.80;83.80;;;;;;5081599;28;19908;-78
2022/01/22 08:54:55;;;;;;;;;;;-2.80;84.40;;;;;;5082449;28;20208;-79
2022/01/22 08:57:21;;;;;;;;;;;-2.50;84.90;;;;;;5082282;28;19910;-78
2022/01/22 08:59:46;;;;;;;;;;;-2.80;85.30;;;;;;5082101;28;19995;-78
2022/01/22 09:02:14;;;;;;;;;;;-2.70;85.60;;;;;;5063769;28;19915;-78
2022/01/22 09:04:40;;;;;;;;;;;-2.60;84.20;;;;;;5081964;28;19911;-78
2022/01/22 09:07:05;;;;;;;;;;;-2.50;83.00;;;;;;5063730;28;19903;-78
2022/01/22 09:09:31;;;;;;;;;;;-2.50;83.60;;;;;;5082002;28;20397;-79
2022/01/22 09:11:56;;;;;;;;;;;-1.90;83.30;;;;;;5063986;28;19916;-79
2022/01/22 09:14:25;;;;;;;;;;;-2.50;84.30;;;;;;5081684;28;19904;-78
2022/01/22 09:16:53;;;;;;;;;;;-2.50;85.10;;;;;;5063154;28;19908;-78
2022/01/22 09:19:21;;;;;;;;;;;-1.60;86.30;;;;;;5081887;28;19995;-78
2022/01/22 09:21:47;;;;;;;;;;;-2.50;85.40;;;;;;5081878;28;20475;-78
2022/01/22 09:24:15;;;;;;;;;;;-2.30;85.70;;;;;;5081048;28;20278;-78
2022/01/22 09:26:41;;;;;;;;;;;-2.30;85.20;;;;;;5062472;28;19911;-79
2022/01/22 09:29:07;;;;;;;;;;;-1.20;85.80;;;;;;5062813;28;19915;-79
2022/01/22 09:31:32;;;;;;;;;;;-2.20;85.80;;;;;;5062887;28;20131;-79
2022/01/22 09:34:00;;;;;;;;;;;-2.40;85.00;;;;;;5081579;28;19904;-79
2022/01/22 09:36:28;;;;;;;;;;;-2.40;85.10;;;;;;5080972;28;19912;-78
2022/01/22 09:38:56;;;;;;;;;;;-2.40;85.60;;;;;;5063223;28;19904;-78
2022/01/22 09:41:23;;;;;;;;;;;-0.20;86.60;;;;;;5063732;28;20271;-79
2022/01/22 09:43:50;;;;;;;;;;;-2.40;85.80;;;;;;5082375;28;19904;-78
2022/01/22 09:46:19;;;;;;;;;;;-2.60;86.20;;;;;;5082553;28;19985;-78
2022/01/22 09:48:45;;;;;;;;;;;-2.70;89.20;;;;;;5064967;28;20199;-79
2022/01/22 09:51:11;;;;;;;;;;;-1.70;90.90;;;;;;5085152;28;19908;-79
2022/01/22 09:53:38;;;;;;;;;;;-0.20;91.70;;;;;;5070643;28;20101;-79
2022/01/22 09:56:04;;;;;;;;;;;-2.80;91.30;;;;;;5090100;28;19919;-79
2022/01/22 09:58:33;;;;;;;;;;;-1.70;91.80;;;;;;5069953;28;20112;-79
2022/01/22 10:01:17;;;;;;;;;;;-3.20;91.70;;;;;;5088219;28;19904;-79
2022/01/22 10:03:44;;;;;;;;;;;-2.50;91.70;;;;;;5065202;28;19930;-79
2022/01/22 10:06:13;;;;;;;;;;;-2.40;92.40;;;;;;5063479;28;19904;-78
2022/01/22 10:08:40;;;;;;;;;;;-4.40;91.60;;;;;;5081805;28;19904;-79
2022/01/22 10:11:15;;;;;;;;;;;-2.10;92.20;;;;;;5062600;28;20410;-79
2022/01/22 10:13:42;;;;;;;;;;;-1.90;92.30;;;;;;5062035;28;20209;-79
2022/01/22 10:16:14;;;;;;;;;;;0.80;92.80;;;;;;5079691;28;20369;-79
2022/01/22 10:18:39;;;;;;;;;;;-1.50;91.80;;;;;;5079453;28;19911;-79
2022/01/22 10:21:09;;;;;;;;;;;-1.50;90.90;;;;;;5061171;28;20314;-79
2022/01/22 10:23:39;;;;;;;;;;;-0.10;91.30;;;;;;5079676;28;19904;-79
2022/01/22 10:26:07;;;;;;;;;;;-1.30;91.30;;;;;;5079537;28;20007;-79
2022/01/22 10:28:41;;;;;;;;;;;-1.10;91.40;;;;;;5061125;28;19910;-78
2022/01/22 10:31:10;;;;;;;;;;;-1.00;90.90;;;;;;5061837;28;19980;-79
2022/01/22 10:33:36;;;;;;;;;;;-1.10;90.20;;;;;;5061382;28;19930;-79
2022/01/22 10:36:14;;;;;;;;;;;-1.00;90.00;;;;;;5061673;28;19912;-79
2022/01/22 10:38:46;;;;;;;;;;;-1.00;90.30;;;;;;5078665;28;20097;-79
2022/01/22 10:41:13;;;;;;;;;;;-1.10;90.50;;;;;;5061131;28;19912;-79
2022/01/22 10:43:43;;;;;;;;;;;-1.30;90.70;;;;;;5079664;28;20390;-78
2022/01/22 10:48:43;;;;;;;;;;;-1.20;91.20;;;;;;5079625;28;19904;-79
2022/01/22 10:51:13;;;;;;;;;;;-0.60;91.60;;;;;;5061409;28;19923;-79
2022/01/22 10:53:45;;;;;;;;;;;-1.30;91.60;;;;;;5060692;28;20249;-78
2022/01/22 10:56:15;;;;;;;;;;;-1.30;91.60;;;;;;5079275;28;19916;-78
2022/01/22 10:59:07;;;;;;;;;;;-1.30;92.00;;;;;;5079852;28;19915;-79
2022/01/22 11:01:38;;;;;;;;;;;-1.30;91.80;;;;;;5075297;28;20170;-78
2022/01/22 11:04:06;;;;;;;;;;;-1.30;92.10;;;;;;5080024;28;20366;-79
2022/01/22 11:06:32;;;;;;;;;;;-1.40;92.60;;;;;;5061302;28;19904;-79
2022/01/22 11:09:00;;;;;;;;;;;-1.40;92.80;;;;;;5062198;28;19961;-79
2022/01/22 11:11:26;;;;;;;;;;;-0.10;93.60;;;;;;5079661;28;20359;-79
2022/01/22 11:13:51;;;;;;;;;;;-1.50;93.40;;;;;;5079092;28;19920;-79
2022/01/22 11:16:18;;;;;;;;;;;-1.60;94.10;;;;;;5079233;28;19960;-79
2022/01/22 11:18:46;;;;;;;;;;;-0.60;94.40;;;;;;5079072;28;19911;-79
2022/01/22 11:21:12;;;;;;;;;;;-1.60;94.50;;;;;;5060866;28;19939;-79
2022/01/22 11:23:38;;;;;;;;;;;-1.70;94.60;;;;;;5079198;28;19951;-79
2022/01/22 11:26:03;;;;;;;;;;;-1.60;94.80;;;;;;5079049;28;19939;-78
2022/01/22 11:28:33;;;;;;;;;;;-1.60;95.10;;;;;;5079236;28;19907;-79
2022/01/22 11:31:00;;;;;;;;;;;-1.50;95.00;;;;;;5060783;28;20559;-79
2022/01/22 11:33:26;;;;;;;;;;;-1.40;95.20;;;;;;5061277;28;20322;-79
2022/01/22 11:35:51;;;;;;;;;;;-1.50;95.20;;;;;;5078723;28;19912;-78
2022/01/22 11:38:26;;;;;;;;;;;-1.40;95.50;;;;;;5078832;28;19949;-78
2022/01/22 11:41:10;;;;;;;;;;;-1.30;95.30;;;;;;5079084;28;19904;-79
2022/01/22 11:43:59;;;;;;;;;;;-1.30;95.20;;;;;;5060616;28;19939;-79
2022/01/22 11:46:34;;;;;;;;;;;-1.30;95.40;;;;;;5078960;28;19999;-79
2022/01/22 11:49:09;;;;;;;;;;;-1.50;96.00;;;;;;5079082;28;19969;-79
2022/01/22 11:51:38;;;;;;;;;;;-1.60;95.90;;;;;;5082897;28;19919;-79
2022/01/22 11:54:04;;;;;;;;;;;-1.60;96.40;;;;;;5082810;28;19908;-79
2022/01/22 11:56:46;;;;;;;;;;;-1.60;96.40;;;;;;5082772;28;20430;-79
2022/01/22 11:59:12;;;;;;;;;;;-1.60;96.20;;;;;;5082868;28;20487;-79
2022/01/22 12:01:56;;;;;;;;;;;-1.60;96.70;;;;;;5065009;28;20491;-79
2022/01/22 12:04:28;;;;;;;;;;;-1.70;96.50;;;;;;5064281;28;19904;-79
2022/01/22 12:07:07;;;;;;;;;;;-4.10;95.80;;;;;;5083171;28;19904;-78
2022/01/22 12:09:41;;;;;;;;;;;-1.20;96.40;;;;;;5064905;28;19904;-79
2022/01/22 12:15:18;;;;;;;;;;;-1.60;96.60;;;;;;5088153;28;19919;-78
2022/01/22 12:17:47;;;;;;;;;;;-1.40;96.90;;;;;;5065518;28;19955;-79
2022/01/22 12:23:08;;;;;;;;;;;-1.50;96.20;;;;;;5082466;28;19908;-79
2022/01/22 12:25:54;;;;;;;;;;;-1.40;96.50;;;;;;5064084;28;19904;-79
2022/01/22 12:28:39;;;;;;;;;;;-1.40;96.60;;;;;;4983216;28;20523;-79
2022/01/22 12:31:06;;;;;;;;;;;-1.40;96.80;;;;;;4999469;28;20005;-79
2022/01/22 12:33:32;;;;;;;;;;;-1.40;97.50;;;;;;5000538;28;19996;-79
2022/01/22 12:35:59;;;;;;;;;;;-0.10;97.70;;;;;;5002650;28;19980;-80
2022/01/22 12:38:49;;;;;;;;;;;-1.40;97.50;;;;;;5007489;28;19980;-79
2022/01/22 12:44:06;;;;;;;;;;;-1.40;97.70;;;;;;5013444;28;19912;-79
2022/01/22 12:46:37;;;;;;;;;;;-1.40;97.80;;;;;;5002726;28;19905;-78
2022/01/22 12:49:03;;;;;;;;;;;-1.30;97.80;;;;;;5002109;28;19952;-79
2022/01/22 12:51:30;;;;;;;;;;;-1.30;97.80;;;;;;4983611;28;19914;-79
2022/01/22 12:53:56;;;;;;;;;;;-1.20;97.60;;;;;;5000037;28;20404;-79
2022/01/22 12:59:04;;;;;;;;;;;-1.50;97.80;;;;;;4999444;28;19943;-80
2022/01/22 13:01:34;;;;;;;;;;;-1.60;98.40;;;;;;4998276;28;19931;-79
2022/01/22 13:04:04;;;;;;;;;;;-1.80;98.60;;;;;;4988766;28;19949;-80
2022/01/22 13:06:40;;;;;;;;;;;-1.50;98.60;;;;;;5079729;28;20234;-79
2022/01/22 13:09:11;;;;;;;;;;;-1.50;98.20;;;;;;5082935;28;19991;-79
2022/01/22 13:11:45;;;;;;;;;;;-1.40;98.40;;;;;;5060673;28;20374;-79
2022/01/22 13:14:11;;;;;;;;;;;-1.40;98.50;;;;;;5062071;28;19951;-79
2022/01/22 13:16:45;;;;;;;;;;;0.50;99.00;;;;;;5067489;28;19959;-79
2022/01/22 13:19:10;;;;;;;;;;;-1.20;98.20;;;;;;5060994;28;19927;-79
2022/01/22 13:21:50;;;;;;;;;;;-1.30;98.40;;;;;;5063325;28;19905;-78
2022/01/22 13:24:16;;;;;;;;;;;-1.20;98.40;;;;;;5061084;28;19908;-79
2022/01/22 13:26:54;;;;;;;;;;;-0.50;98.50;;;;;;5061494;28;20010;-79
2022/01/22 13:29:29;;;;;;;;;;;-1.10;98.20;;;;;;5062117;28;20143;-79
2022/01/22 13:31:59;;;;;;;;;;;-1.00;98.40;;;;;;5061973;28;19992;-79
2022/01/22 13:34:48;;;;;;;;;;;-1.10;98.30;;;;;;5062181;28;19908;-79
2022/01/22 13:48:29;;;;;;;;;;;-1.30;98.90;;;;;;5062800;28;19947;-79
2022/01/22 13:50:54;;;;;;;;;;;-1.30;99.00;;;;;;5061905;28;19948;-79
2022/01/22 13:53:21;;;;;;;;;;;-1.20;99.10;;;;;;5062497;28;19940;-79
2022/01/22 13:55:59;;;;;;;;;;;-1.20;99.20;;;;;;5062280;28;19943;-79
2022/01/22 13:58:25;;;;;;;;;;;-1.20;99.00;;;;;;5063167;28;19912;-79
2022/01/22 14:00:53;;;;;;;;;;;-1.10;99.00;;;;;;5062628;28;20272;-79
2022/01/22 14:03:29;;;;;;;;;;;-1.00;99.00;;;;;;5067787;28;20216;-79
2022/01/22 14:05:55;;;;;;;;;;;-0.50;98.90;;;;;;5068451;28;19943;-79
2022/01/22 14:08:33;;;;;;;;;;;-0.90;98.50;;;;;;5068658;28;19916;-79
2022/01/22 14:11:06;;;;;;;;;;;-0.90;98.20;;;;;;5064631;28;20565;-79
2022/01/22 14:13:32;;;;;;;;;;;-1.20;98.10;;;;;;5084533;28;19981;-79
2022/01/22 14:16:09;;;;;;;;;;;-1.20;98.70;;;;;;5083483;28;19978;-79
2022/01/22 14:18:39;;;;;;;;;;;-1.40;98.50;;;;;;5064195;28;19904;-80
2022/01/22 14:21:05;;;;;;;;;;;-1.40;98.90;;;;;;5082412;28;20152;-79
2022/01/22 14:23:34;;;;;;;;;;;-1.50;99.10;;;;;;5082000;28;19904;-79
2022/01/22 14:26:01;;;;;;;;;;;-1.50;99.10;;;;;;5082151;28;19915;-80
2022/01/22 14:28:46;;;;;;;;;;;-1.40;99.00;;;;;;5067883;28;19908;-79
2022/01/22 14:31:28;;;;;;;;;;;-1.40;99.00;;;;;;5087655;28;19908;-80
2022/01/22 14:33:54;;;;;;;;;;;-1.30;99.00;;;;;;5068427;28;19911;-79
2022/01/22 14:36:21;;;;;;;;;;;-1.30;99.00;;;;;;5086959;28;19993;-79
2022/01/22 14:38:59;;;;;;;;;;;-1.20;99.00;;;;;;5083801;28;20311;-79
2022/01/22 14:46:52;;;;;;;;;;;-1.50;98.90;;;;;;5080519;28;20113;-79
2022/01/22 14:49:24;;;;;;;;;;;-1.50;99.10;;;;;;5061623;28;20404;-79
2022/01/22 14:51:49;;;;;;;;;;;-1.50;99.20;;;;;;5061726;28;20011;-79
2022/01/22 14:54:15;;;;;;;;;;;-1.50;99.20;;;;;;5061589;28;20493;-79
2022/01/22 14:56:42;;;;;;;;;;;-1.50;99.20;;;;;;5061583;28;20336;-79
2022/01/22 14:59:07;;;;;;;;;;;-1.50;99.30;;;;;;5079692;28;20007;-80
2022/01/22 15:01:33;;;;;;;;;;;-0.80;99.40;;;;;;5079944;28;20058;-79
2022/01/22 15:03:58;;;;;;;;;;;-0.50;99.50;;;;;;5079526;28;19982;-80
2022/01/22 15:06:24;;;;;;;;;;;-1.40;99.70;;;;;;5079942;28;20390;-79
2022/01/22 15:08:49;;;;;;;;;;;-1.50;99.80;;;;;;5080538;28;20428;-79
2022/01/22 15:11:15;;;;;;;;;;;-1.30;99.90;;;;;;5061847;28;20356;-79
2022/01/22 15:13:41;;;;;;;;;;;-1.50;99.90;;;;;;5079733;28;19943;-78
2022/01/22 15:16:08;;;;;;;;;;;-1.50;99.90;;;;;;5079473;28;19970;-79
2022/01/22 15:19:00;;;;;;;;;;;0.20;99.90;;;;;;5060599;28;19908;-79
2022/01/22 15:21:26;;;;;;;;;;;-1.20;99.90;;;;;;5069634;28;20229;-79
2022/01/22 15:23:52;;;;;;;;;;;-1.50;99.90;;;;;;5086670;28;19912;-78
2022/01/22 15:26:18;;;;;;;;;;;-1.90;99.90;;;;;;5087101;28;19961;-78
2022/01/22 15:28:45;;;;;;;;;;;-1.90;99.90;;;;;;5080904;28;19904;-78
2022/01/22 15:31:36;;;;;;;;;;;-0.40;99.90;;;;;;5080079;28;19915;-79
2022/01/22 15:34:12;;;;;;;;;;;-1.90;99.90;;;;;;5061909;28;20511;-78
2022/01/22 15:36:39;;;;;;;;;;;-1.90;99.90;;;;;;5080005;28;20049;-79
2022/01/22 15:39:05;;;;;;;;;;;-1.90;99.90;;;;;;5079169;28;20202;-79
2022/01/22 15:41:33;;;;;;;;;;;-1.90;99.90;;;;;;5079586;28;19908;-78
2022/01/22 15:44:01;;;;;;;;;;;1.10;99.90;;;;;;5081677;28;20370;-79
2022/01/22 15:46:27;;;;;;;;;;;-1.90;99.90;;;;;;5083386;28;19904;-80
2022/01/22 15:48:53;;;;;;;;;;;-1.90;99.90;;;;;;5087542;28;19988;-79
2022/01/22 15:51:18;;;;;;;;;;;-1.90;99.90;;;;;;5083809;28;20112;-81
2022/01/22 15:53:44;;;;;;;;;;;0.50;99.90;;;;;;5080567;28;19904;-79
2022/01/22 15:56:11;;;;;;;;;;;-1.80;99.90;;;;;;5080132;28;20121;-79
2022/01/22 15:58:36;;;;;;;;;;;-1.80;99.90;;;;;;5079291;28;19926;-79
2022/01/22 16:01:02;;;;;;;;;;;-1.80;99.90;;;;;;5079423;28;20397;-80
2022/01/22 16:03:30;;;;;;;;;;;-1.10;99.90;;;;;;5060929;28;19908;-79
2022/01/22 16:05:57;;;;;;;;;;;-0.70;99.90;;;;;;5060523;28;19904;-79
2022/01/22 16:08:23;;;;;;;;;;;-1.90;99.90;;;;;;5078810;28;20169;-78
2022/01/22 16:10:48;;;;;;;;;;;0.50;99.90;;;;;;5078644;28;20387;-79
2022/01/22 16:13:18;;;;;;;;;;;-2.00;99.90;;;;;;5060903;28;20331;-79
2022/01/22 16:15:43;;;;;;;;;;;-1.60;99.90;;;;;;5078942;28;19937;-80
2022/01/22 16:18:09;;;;;;;;;;;-2.00;99.90;;;;;;5079039;28;19908;-79
2022/01/22 16:20:35;;;;;;;;;;;-2.00;99.90;;;;;;5079374;28;20192;-79
2022/01/22 16:23:00;;;;;;;;;;;-2.00;99.90;;;;;;5079123;28;20049;-79
2022/01/22 16:25:26;;;;;;;;;;;-2.00;99.90;;;;;;5080950;28;19915;-79
2022/01/22 16:27:52;;;;;;;;;;;-2.10;99.90;;;;;;5079120;28;20124;-79
2022/01/22 16:30:17;;;;;;;;;;;-2.10;99.90;;;;;;5078998;28;19908;-80
2022/01/22 16:32:43;;;;;;;;;;;-0.70;99.90;;;;;;5079376;28;19904;-79
2022/01/22 16:35:09;;;;;;;;;;;-2.20;99.90;;;;;;5061374;28;19920;-80